Time;durP1;ratioP1;P1;durP2;ratioP2;P2;SDS_P1;SDS_P2;PMS_P1;PMS_P2;Temp;Humidity;BMP_temperature;BMP_pressure;BME280_temperature;BME280_humidity;BME280_pressure;Samples;Min_cycle;Max_cycle;Signal;HPM_P1;HPM_P2
2022/11/06 00:00:13;;;;;;;7.40;2.53;;;;;;;;;;5017123;28;20045;-65
2022/11/06 00:02:58;;;;;;;9.48;2.30;;;;;;;;;;5009543;28;20622;-64
2022/11/06 00:08:09;;;;;;;9.27;2.53;;;;;;;;;;5005066;28;20409;-64
2022/11/06 00:10:36;;;;;;;9.93;3.05;;;;;;;;;;5010435;28;20042;-64
2022/11/06 00:13:02;;;;;;;13.02;2.67;;;;;;;;;;5010532;28;20081;-63
2022/11/06 00:15:29;;;;;;;10.00;2.70;;;;;;;;;;5007785;28;20045;-62
2022/11/06 00:17:55;;;;;;;6.45;2.80;;;;;;;;;;5010322;28;20060;-62
2022/11/06 00:20:21;;;;;;;7.70;3.13;;;;;;;;;;5001178;28;20102;-62
2022/11/06 00:22:47;;;;;;;6.30;2.70;;;;;;;;;;5006720;28;20042;-62
2022/11/06 00:25:13;;;;;;;5.60;3.03;;;;;;;;;;5005300;28;20137;-62
2022/11/06 00:27:40;;;;;;;10.75;2.95;;;;;;;;;;5010419;28;20133;-62
2022/11/06 00:30:08;;;;;;;10.38;3.38;;;;;;;;;;5002706;28;20078;-63
2022/11/06 00:32:34;;;;;;;6.03;2.90;;;;;;;;;;5005218;28;20053;-63
2022/11/06 00:35:00;;;;;;;10.38;3.28;;;;;;;;;;5009302;28;20554;-65
2022/11/06 00:37:26;;;;;;;11.15;3.63;;;;;;;;;;5001690;28;20492;-64
2022/11/06 00:39:52;;;;;;;5.07;2.95;;;;;;;;;;5011855;28;20523;-63
2022/11/06 00:42:18;;;;;;;7.28;3.00;;;;;;;;;;5010792;28;20046;-63
2022/11/06 00:44:44;;;;;;;9.57;2.70;;;;;;;;;;5009105;28;20058;-63
2022/11/06 00:47:10;;;;;;;4.20;2.30;;;;;;;;;;5003954;28;20042;-61
2022/11/06 00:49:37;;;;;;;6.25;2.60;;;;;;;;;;5008287;28;20115;-61
2022/11/06 00:52:04;;;;;;;5.03;2.42;;;;;;;;;;5007090;28;20575;-62
2022/11/06 00:54:30;;;;;;;11.20;2.83;;;;;;;;;;5008130;28;20059;-60
2022/11/06 00:56:55;;;;;;;8.90;2.75;;;;;;;;;;5010449;28;20137;-61
2022/11/06 00:59:21;;;;;;;13.88;3.00;;;;;;;;;;5003526;28;20236;-61
2022/11/06 01:01:47;;;;;;;6.20;2.88;;;;;;;;;;5013430;28;20038;-61
2022/11/06 01:04:21;;;;;;;7.47;3.40;;;;;;;;;;5003338;28;20079;-64
2022/11/06 01:06:51;;;;;;;8.68;2.85;;;;;;;;;;5007338;28;20053;-63
2022/11/06 01:09:21;;;;;;;5.47;2.50;;;;;;;;;;5008353;28;20057;-62
2022/11/06 01:11:51;;;;;;;5.35;2.38;;;;;;;;;;5008536;28;20042;-68
2022/11/06 01:14:19;;;;;;;6.95;2.42;;;;;;;;;;5009738;28;20064;-61
2022/11/06 01:16:44;;;;;;;8.00;2.70;;;;;;;;;;5012458;28;20053;-62
2022/11/06 01:19:12;;;;;;;9.82;2.85;;;;;;;;;;5002280;28;20056;-64
2022/11/06 01:21:39;;;;;;;5.85;2.45;;;;;;;;;;5009796;28;20321;-60
2022/11/06 01:24:11;;;;;;;9.65;2.80;;;;;;;;;;5013867;28;20041;-66
2022/11/06 01:26:37;;;;;;;5.63;2.38;;;;;;;;;;5006971;28;20410;-62
2022/11/06 01:29:06;;;;;;;6.20;2.40;;;;;;;;;;5001337;28;20390;-63
2022/11/06 01:31:33;;;;;;;6.97;2.38;;;;;;;;;;5002220;28;20104;-61
2022/11/06 01:34:00;;;;;;;7.18;2.33;;;;;;;;;;5003256;28;20046;-61
2022/11/06 01:36:27;;;;;;;8.25;2.60;;;;;;;;;;5010061;28;20089;-60
2022/11/06 01:38:55;;;;;;;6.35;2.22;;;;;;;;;;5002795;28;20057;-64
2022/11/06 01:41:24;;;;;;;6.55;2.50;;;;;;;;;;5007886;28;20061;-63
2022/11/06 01:43:55;;;;;;;5.82;2.45;;;;;;;;;;5006708;28;20053;-64
2022/11/06 01:46:23;;;;;;;6.03;2.00;;;;;;;;;;5008540;28;20058;-63
2022/11/06 01:49:03;;;;;;;5.00;2.38;;;;;;;;;;5007254;28;20057;-62
2022/11/06 01:51:33;;;;;;;11.15;2.50;;;;;;;;;;5010405;28;20046;-64
2022/11/06 01:54:01;;;;;;;4.82;2.40;;;;;;;;;;5012077;28;20045;-68
2022/11/06 01:56:27;;;;;;;5.50;2.40;;;;;;;;;;5009839;28;20153;-64
2022/11/06 01:58:54;;;;;;;8.13;2.38;;;;;;;;;;5008579;28;20108;-66
2022/11/06 02:01:21;;;;;;;7.53;2.50;;;;;;;;;;5006172;28;20104;-68
2022/11/06 02:03:54;;;;;;;6.10;2.53;;;;;;;;;;4993905;28;20050;-63
2022/11/06 02:06:20;;;;;;;6.20;2.30;;;;;;;;;;5006090;28;20199;-64
2022/11/06 02:08:46;;;;;;;4.28;2.35;;;;;;;;;;5007726;28;20042;-65
2022/11/06 02:11:12;;;;;;;5.95;2.50;;;;;;;;;;5000056;28;20091;-65
2022/11/06 02:13:52;;;;;;;7.13;2.35;;;;;;;;;;5005477;28;20038;-65
2022/11/06 02:16:28;;;;;;;11.20;2.50;;;;;;;;;;5002800;28;20133;-62
2022/11/06 02:19:18;;;;;;;9.40;2.80;;;;;;;;;;5004478;28;20041;-63
2022/11/06 02:22:02;;;;;;;8.40;2.70;;;;;;;;;;5009974;28;20037;-64
2022/11/06 02:25:12;;;;;;;8.43;2.25;;;;;;;;;;5007087;28;20511;-64
2022/11/06 02:27:53;;;;;;;4.28;2.30;;;;;;;;;;4999301;28;20047;-62
2022/11/06 02:30:19;;;;;;;6.85;1.98;;;;;;;;;;5009659;28;20064;-63
2022/11/06 02:32:57;;;;;;;6.75;2.03;;;;;;;;;;5003804;28;20050;-62
2022/11/06 02:35:31;;;;;;;4.10;1.90;;;;;;;;;;4999610;28;20108;-61
2022/11/06 02:38:02;;;;;;;3.55;1.50;;;;;;;;;;5008734;28;20402;-63
2022/11/06 02:40:32;;;;;;;3.15;1.60;;;;;;;;;;5009104;28;20050;-67
2022/11/06 02:43:03;;;;;;;5.30;1.55;;;;;;;;;;5004118;28;20053;-62
2022/11/06 02:45:31;;;;;;;3.17;1.80;;;;;;;;;;5001599;28;20077;-62
2022/11/06 02:47:59;;;;;;;3.95;1.70;;;;;;;;;;5003749;28;20389;-62
2022/11/06 02:50:32;;;;;;;4.18;2.03;;;;;;;;;;4997096;28;20041;-60
2022/11/06 02:53:03;;;;;;;5.47;1.95;;;;;;;;;;5004959;28;20045;-65
2022/11/06 02:56:05;;;;;;;5.45;1.60;;;;;;;;;;5007417;28;20053;-61
2022/11/06 02:59:00;;;;;;;2.53;1.38;;;;;;;;;;4999790;28;20045;-63
2022/11/06 03:01:32;;;;;;;4.65;1.38;;;;;;;;;;5000791;28;20054;-61
2022/11/06 03:04:03;;;;;;;4.80;1.42;;;;;;;;;;5004351;28;20077;-63
2022/11/06 03:06:36;;;;;;;3.75;1.20;;;;;;;;;;5005862;28;20059;-61
2022/11/06 03:09:07;;;;;;;3.15;1.27;;;;;;;;;;5003995;28;20053;-60
2022/11/06 03:11:37;;;;;;;3.40;1.65;;;;;;;;;;5006312;28;20053;-61
2022/11/06 03:14:21;;;;;;;3.53;1.33;;;;;;;;;;5005708;28;20518;-64
2022/11/06 03:17:18;;;;;;;5.07;1.55;;;;;;;;;;5004384;28;20439;-63
2022/11/06 03:19:46;;;;;;;3.05;1.58;;;;;;;;;;5012778;28;20054;-61
2022/11/06 03:22:30;;;;;;;5.47;1.63;;;;;;;;;;5004729;28;20137;-60
2022/11/06 03:25:15;;;;;;;3.42;1.25;;;;;;;;;;5005530;28;20054;-64
2022/11/06 03:27:56;;;;;;;4.63;1.20;;;;;;;;;;5001176;28;20046;-62
2022/11/06 03:30:22;;;;;;;5.07;1.40;;;;;;;;;;5006173;28;20038;-61
2022/11/06 03:33:03;;;;;;;3.83;1.40;;;;;;;;;;4994075;28;20046;-63
2022/11/06 03:35:36;;;;;;;2.70;1.63;;;;;;;;;;4991075;28;20042;-61
2022/11/06 03:38:26;;;;;;;3.15;1.48;;;;;;;;;;5003222;28;20038;-61
2022/11/06 03:40:58;;;;;;;2.92;1.40;;;;;;;;;;5002656;28;20119;-60
2022/11/06 03:43:29;;;;;;;4.40;1.35;;;;;;;;;;5005696;28;20038;-61
2022/11/06 03:45:58;;;;;;;4.32;1.40;;;;;;;;;;5005073;28;20057;-61
2022/11/06 03:48:32;;;;;;;5.97;1.90;;;;;;;;;;5005173;28;20054;-61
2022/11/06 03:51:07;;;;;;;4.05;1.50;;;;;;;;;;4997820;28;20042;-62
2022/11/06 03:53:44;;;;;;;2.80;1.42;;;;;;;;;;5035584;28;20037;-61
2022/11/06 03:56:31;;;;;;;6.78;1.27;;;;;;;;;;4993571;28;20495;-62
2022/11/06 03:59:01;;;;;;;4.53;1.30;;;;;;;;;;5004335;28;20058;-60
2022/11/06 04:01:32;;;;;;;4.60;2.03;;;;;;;;;;5004560;28;20050;-60
2022/11/06 04:04:03;;;;;;;4.63;1.58;;;;;;;;;;5010685;28;20057;-62
2022/11/06 04:06:49;;;;;;;2.67;1.20;;;;;;;;;;4995836;28;20045;-61
2022/11/06 04:14:51;;;;;;;2.58;1.60;;;;;;;;;;5004605;28;20186;-63
2022/11/06 04:17:18;;;;;;;3.38;1.55;;;;;;;;;;5003924;28;20061;-64
2022/11/06 04:19:53;;;;;;;4.38;1.70;;;;;;;;;;5005386;28;20046;-63
2022/11/06 04:22:28;;;;;;;5.78;1.83;;;;;;;;;;5000433;28;20042;-64
2022/11/06 04:28:24;;;;;;;5.88;1.40;;;;;;;;;;5004299;28;20155;-59
2022/11/06 04:31:03;;;;;;;6.60;1.77;;;;;;;;;;5005415;28;20049;-63
2022/11/06 04:34:10;;;;;;;4.15;1.50;;;;;;;;;;5001995;28;20049;-63
2022/11/06 04:36:54;;;;;;;4.88;1.40;;;;;;;;;;4977926;28;20042;-62
2022/11/06 04:40:05;;;;;;;4.00;1.37;;;;;;;;;;4978930;28;20043;-60
2022/11/06 04:42:53;;;;;;;3.25;1.52;;;;;;;;;;4981829;28;20720;-63
2022/11/06 04:45:24;;;;;;;4.05;1.45;;;;;;;;;;4981226;28;20129;-65
2022/11/06 04:47:52;;;;;;;5.60;1.70;;;;;;;;;;4981296;28;20047;-64
2022/11/06 04:50:21;;;;;;;5.07;2.10;;;;;;;;;;4983276;28;20113;-60
2022/11/06 04:52:48;;;;;;;10.35;2.00;;;;;;;;;;4984674;28;20104;-64
2022/11/06 04:55:14;;;;;;;3.42;1.83;;;;;;;;;;4990189;28;20057;-60
2022/11/06 04:57:39;;;;;;;4.05;2.17;;;;;;;;;;4987182;28;20050;-60
2022/11/06 05:00:06;;;;;;;5.72;2.00;;;;;;;;;;4988366;28;20072;-63
2022/11/06 05:02:32;;;;;;;3.40;1.83;;;;;;;;;;4984830;28;20070;-62
2022/11/06 05:04:58;;;;;;;7.68;2.13;;;;;;;;;;4991565;28;21503;-62
2022/11/06 05:07:24;;;;;;;4.60;2.22;;;;;;;;;;4985194;28;20110;-61
2022/11/06 05:09:49;;;;;;;6.80;1.92;;;;;;;;;;4985641;28;20097;-63
2022/11/06 05:12:15;;;;;;;4.05;1.92;;;;;;;;;;5000801;28;20523;-61
2022/11/06 05:14:41;;;;;;;3.65;2.10;;;;;;;;;;5007534;28;20057;-61
2022/11/06 05:17:07;;;;;;;7.53;2.30;;;;;;;;;;5008083;28;20045;-59
2022/11/06 05:19:33;;;;;;;8.05;2.50;;;;;;;;;;5009097;28;20046;-62
2022/11/06 05:24:43;;;;;;;6.00;2.20;;;;;;;;;;5002452;28;20054;-60
2022/11/06 05:27:09;;;;;;;7.20;2.38;;;;;;;;;;5008211;28;20042;-67
2022/11/06 05:29:35;;;;;;;7.72;2.10;;;;;;;;;;5008085;28;20135;-64
2022/11/06 05:32:01;;;;;;;8.85;2.40;;;;;;;;;;5004827;28;20367;-62
2022/11/06 05:34:27;;;;;;;9.20;2.30;;;;;;;;;;5001303;28;20096;-64
2022/11/06 05:36:53;;;;;;;6.60;2.20;;;;;;;;;;5001701;28;20052;-64
2022/11/06 05:39:19;;;;;;;13.93;2.75;;;;;;;;;;5011644;28;20462;-63
2022/11/06 05:41:45;;;;;;;4.90;2.15;;;;;;;;;;5002410;28;20686;-61
2022/11/06 05:44:11;;;;;;;4.97;1.98;;;;;;;;;;5012946;28;20061;-63
2022/11/06 05:46:37;;;;;;;5.30;2.10;;;;;;;;;;5007869;28;20503;-62
2022/11/06 05:49:02;;;;;;;7.53;2.08;;;;;;;;;;5012068;28;20132;-64
2022/11/06 05:51:29;;;;;;;7.45;1.98;;;;;;;;;;5006583;28;20495;-62
2022/11/06 05:53:54;;;;;;;2.88;1.80;;;;;;;;;;5002021;28;20045;-65
2022/11/06 05:56:20;;;;;;;6.45;2.22;;;;;;;;;;5000125;28;20510;-61
2022/11/06 05:58:46;;;;;;;4.20;2.33;;;;;;;;;;5005359;28;20054;-63
2022/11/06 06:01:12;;;;;;;4.70;1.83;;;;;;;;;;5007887;28;20068;-66
2022/11/06 06:03:38;;;;;;;5.85;2.08;;;;;;;;;;5008562;28;20038;-64
2022/11/06 06:06:04;;;;;;;4.10;1.90;;;;;;;;;;5007194;28;20057;-61
2022/11/06 06:08:30;;;;;;;5.85;2.40;;;;;;;;;;5008318;28;20103;-66
2022/11/06 06:10:56;;;;;;;7.57;2.15;;;;;;;;;;5011714;28;20505;-67
2022/11/06 06:13:22;;;;;;;8.07;2.90;;;;;;;;;;5010681;28;20050;-62
2022/11/06 06:15:48;;;;;;;10.85;4.00;;;;;;;;;;5008619;28;20089;-62
2022/11/06 06:18:14;;;;;;;7.50;3.10;;;;;;;;;;5010580;28;20171;-60
2022/11/06 06:20:40;;;;;;;9.32;3.42;;;;;;;;;;4999951;28;20789;-63
2022/11/06 06:23:05;;;;;;;4.13;2.50;;;;;;;;;;5006586;28;20045;-62
2022/11/06 06:25:32;;;;;;;3.78;1.90;;;;;;;;;;5000725;28;20125;-60
2022/11/06 06:27:58;;;;;;;7.93;2.20;;;;;;;;;;5006014;28;20048;-62
2022/11/06 06:30:24;;;;;;;11.02;2.40;;;;;;;;;;5006981;28;20722;-66
2022/11/06 06:32:51;;;;;;;9.15;2.30;;;;;;;;;;5004768;28;20046;-63
2022/11/06 06:35:17;;;;;;;5.85;2.08;;;;;;;;;;5000590;28;20050;-60
2022/11/06 06:37:51;;;;;;;6.55;2.25;;;;;;;;;;5003122;28;20257;-60
2022/11/06 06:40:17;;;;;;;11.65;3.10;;;;;;;;;;5008026;28;20450;-63
2022/11/06 06:42:43;;;;;;;8.07;2.30;;;;;;;;;;5008567;28;20304;-64
2022/11/06 06:45:09;;;;;;;6.35;2.15;;;;;;;;;;5009298;28;20045;-63
2022/11/06 06:47:35;;;;;;;13.25;3.90;;;;;;;;;;5010512;28;20046;-65
2022/11/06 06:50:01;;;;;;;19.13;3.40;;;;;;;;;;5002296;28;20419;-64
2022/11/06 06:52:26;;;;;;;6.60;2.40;;;;;;;;;;5005401;28;20041;-63
2022/11/06 06:54:52;;;;;;;6.22;2.25;;;;;;;;;;5007007;28;20057;-61
2022/11/06 06:57:18;;;;;;;6.85;2.60;;;;;;;;;;4999511;28;20061;-62
2022/11/06 06:59:44;;;;;;;5.63;2.00;;;;;;;;;;4998637;28;20046;-60
2022/11/06 07:02:10;;;;;;;5.65;2.00;;;;;;;;;;4996342;28;20044;-61
2022/11/06 07:04:36;;;;;;;5.20;2.10;;;;;;;;;;5006404;28;20045;-63
2022/11/06 07:07:02;;;;;;;5.53;1.90;;;;;;;;;;5004174;28;20057;-60
2022/11/06 07:09:31;;;;;;;10.35;2.13;;;;;;;;;;4996168;28;20459;-62
2022/11/06 07:11:57;;;;;;;5.00;2.00;;;;;;;;;;5000900;28;20086;-64
2022/11/06 07:14:23;;;;;;;9.57;2.30;;;;;;;;;;5003201;28;20420;-63
2022/11/06 07:16:49;;;;;;;8.85;2.13;;;;;;;;;;5001052;28;20054;-64
2022/11/06 07:19:16;;;;;;;3.58;2.00;;;;;;;;;;5001598;28;20046;-66
2022/11/06 07:21:42;;;;;;;3.97;2.03;;;;;;;;;;5008633;28;20132;-62
2022/11/06 07:24:08;;;;;;;6.47;2.30;;;;;;;;;;4997596;28;20046;-65
2022/11/06 07:26:34;;;;;;;6.50;1.80;;;;;;;;;;4996592;28;20050;-66
2022/11/06 07:29:01;;;;;;;3.97;1.90;;;;;;;;;;5006362;28;20052;-60
2022/11/06 07:31:27;;;;;;;5.72;2.05;;;;;;;;;;4993095;28;20038;-61
2022/11/06 07:33:53;;;;;;;9.73;2.30;;;;;;;;;;5003656;28;20057;-62
2022/11/06 07:36:18;;;;;;;5.38;1.90;;;;;;;;;;5001884;28;20486;-62
2022/11/06 07:38:44;;;;;;;7.22;1.70;;;;;;;;;;4997047;28;20042;-66
2022/11/06 07:41:13;;;;;;;6.13;1.90;;;;;;;;;;5004147;28;20077;-61
2022/11/06 07:43:39;;;;;;;4.40;1.80;;;;;;;;;;5005822;28;20054;-63
2022/11/06 07:46:09;;;;;;;7.18;2.05;;;;;;;;;;5007474;28;20056;-67
2022/11/06 07:48:35;;;;;;;5.60;2.20;;;;;;;;;;5006967;28;20511;-62
2022/11/06 07:51:03;;;;;;;4.60;2.00;;;;;;;;;;5006108;28;20085;-70
2022/11/06 07:53:29;;;;;;;5.05;1.70;;;;;;;;;;5009054;28;20050;-63
2022/11/06 07:55:55;;;;;;;5.20;1.83;;;;;;;;;;5006265;28;20053;-62
2022/11/06 07:58:22;;;;;;;4.90;1.80;;;;;;;;;;5002600;28;20075;-64
2022/11/06 08:00:55;;;;;;;4.07;2.10;;;;;;;;;;5000797;28;20049;-64
2022/11/06 08:03:21;;;;;;;4.32;1.80;;;;;;;;;;5009107;28;20053;-64
2022/11/06 08:05:47;;;;;;;7.15;2.13;;;;;;;;;;4997885;28;20137;-63
2022/11/06 08:08:13;;;;;;;7.63;2.92;;;;;;;;;;4994417;28;20507;-65
2022/11/06 08:10:42;;;;;;;8.52;2.28;;;;;;;;;;4996655;28;20092;-68
2022/11/06 08:13:13;;;;;;;4.93;2.30;;;;;;;;;;4999913;28;20519;-64
2022/11/06 08:15:40;;;;;;;5.82;2.10;;;;;;;;;;4995919;28;20223;-62
2022/11/06 08:18:07;;;;;;;4.07;1.98;;;;;;;;;;4996258;28;20046;-65
2022/11/06 08:20:34;;;;;;;17.42;2.38;;;;;;;;;;5001231;28;20046;-65
2022/11/06 08:23:02;;;;;;;12.27;2.20;;;;;;;;;;5004279;28;20053;-68
2022/11/06 08:25:29;;;;;;;4.68;1.90;;;;;;;;;;4995227;28;20061;-66
2022/11/06 08:27:56;;;;;;;7.13;2.58;;;;;;;;;;5003170;28;20050;-68
2022/11/06 08:30:22;;;;;;;7.40;2.15;;;;;;;;;;5001353;28;20163;-63
2022/11/06 08:32:49;;;;;;;5.78;2.10;;;;;;;;;;5001774;28;20053;-62
2022/11/06 08:35:15;;;;;;;6.55;2.42;;;;;;;;;;4992379;28;20054;-65
2022/11/06 08:37:41;;;;;;;4.53;2.42;;;;;;;;;;4994447;28;20045;-63
2022/11/06 08:40:07;;;;;;;5.38;2.40;;;;;;;;;;5001725;28;20519;-69
2022/11/06 08:42:33;;;;;;;9.50;2.45;;;;;;;;;;4995152;28;20128;-66
2022/11/06 08:44:59;;;;;;;10.98;2.85;;;;;;;;;;5001289;28;20446;-62
2022/11/06 08:47:25;;;;;;;5.43;2.42;;;;;;;;;;5002480;28;20045;-68
2022/11/06 08:49:50;;;;;;;8.70;2.45;;;;;;;;;;4999905;28;20523;-66
2022/11/06 08:52:17;;;;;;;9.65;2.65;;;;;;;;;;5013020;28;20113;-82
2022/11/06 08:54:42;;;;;;;6.97;2.47;;;;;;;;;;5020159;28;20046;-80
2022/11/06 08:57:09;;;;;;;11.82;3.28;;;;;;;;;;5022469;28;20287;-83
2022/11/06 08:59:34;;;;;;;7.68;2.33;;;;;;;;;;5016702;28;21054;-81
2022/11/06 09:02:01;;;;;;;11.18;3.00;;;;;;;;;;5025071;28;20060;-82
2022/11/06 09:04:26;;;;;;;11.43;2.67;;;;;;;;;;5021187;28;20042;-79
2022/11/06 09:06:52;;;;;;;10.57;2.95;;;;;;;;;;5030193;28;20057;-79
2022/11/06 09:09:18;;;;;;;6.93;2.90;;;;;;;;;;5025956;28;20510;-78
2022/11/06 09:11:44;;;;;;;10.27;2.88;;;;;;;;;;5023039;28;20050;-80
2022/11/06 09:14:10;;;;;;;8.25;2.83;;;;;;;;;;5026599;28;20446;-81
2022/11/06 09:16:36;;;;;;;9.88;3.15;;;;;;;;;;5024728;28;20046;-80
2022/11/06 09:19:02;;;;;;;8.80;3.00;;;;;;;;;;5022723;28;20129;-81
2022/11/06 09:21:28;;;;;;;10.13;2.83;;;;;;;;;;5018497;28;20057;-80
2022/11/06 09:23:55;;;;;;;9.95;2.70;;;;;;;;;;5023557;28;20033;-82
2022/11/06 09:26:21;;;;;;;6.13;2.95;;;;;;;;;;5023487;28;20058;-82
2022/11/06 09:28:47;;;;;;;11.07;3.25;;;;;;;;;;5026543;28;20054;-81
2022/11/06 09:31:13;;;;;;;12.95;3.20;;;;;;;;;;5026275;28;20030;-81
2022/11/06 09:33:39;;;;;;;11.73;2.65;;;;;;;;;;5029564;28;20104;-82
2022/11/06 09:36:06;;;;;;;12.05;3.17;;;;;;;;;;5026141;28;20076;-82
2022/11/06 09:38:32;;;;;;;8.05;2.53;;;;;;;;;;5026484;28;20586;-81
2022/11/06 09:41:02;;;;;;;7.28;2.50;;;;;;;;;;5029356;28;20096;-81
2022/11/06 09:43:45;;;;;;;10.40;2.60;;;;;;;;;;5022222;28;20097;-80
2022/11/06 09:46:25;;;;;;;7.37;2.43;;;;;;;;;;5020214;28;20137;-79
2022/11/06 09:49:18;;;;;;;7.50;2.53;;;;;;;;;;5028647;28;20061;-83
2022/11/06 09:51:47;;;;;;;5.40;2.00;;;;;;;;;;5020479;28;20050;-78
2022/11/06 09:54:30;;;;;;;5.80;2.00;;;;;;;;;;5017989;28;20046;-80
2022/11/06 09:57:31;;;;;;;6.90;2.58;;;;;;;;;;5012238;28;20053;-82
2022/11/06 10:00:00;;;;;;;8.05;2.03;;;;;;;;;;5020885;28;20054;-79
2022/11/06 10:02:32;;;;;;;4.05;2.05;;;;;;;;;;5016623;28;20046;-81
2022/11/06 10:05:22;;;;;;;7.32;2.05;;;;;;;;;;5022174;28;20073;-78
2022/11/06 10:07:52;;;;;;;18.98;2.70;;;;;;;;;;5020007;28;20041;-80
2022/11/06 10:10:23;;;;;;;8.25;2.72;;;;;;;;;;5015739;28;20129;-79
2022/11/06 10:13:38;;;;;;;8.13;2.10;;;;;;;;;;5011102;28;20526;-80
2022/11/06 10:16:19;;;;;;;5.70;1.73;;;;;;;;;;5004913;28;20057;-72
2022/11/06 10:18:52;;;;;;;6.20;2.00;;;;;;;;;;5011021;28;20556;-74
2022/11/06 10:21:18;;;;;;;6.30;1.77;;;;;;;;;;4998854;28;20399;-79
2022/11/06 10:23:53;;;;;;;7.72;2.10;;;;;;;;;;5003638;28;20052;-76
2022/11/06 10:26:39;;;;;;;4.45;1.65;;;;;;;;;;5022154;28;20096;-77
2022/11/06 10:29:29;;;;;;;5.85;2.08;;;;;;;;;;4998038;28;20077;-77
2022/11/06 10:32:14;;;;;;;4.25;1.60;;;;;;;;;;5000162;28;20042;-60
2022/11/06 10:34:45;;;;;;;7.00;1.90;;;;;;;;;;4996262;28;20104;-63
2022/11/06 10:37:23;;;;;;;6.10;1.98;;;;;;;;;;5042179;28;20042;-65
2022/11/06 10:39:49;;;;;;;7.25;2.22;;;;;;;;;;5001393;28;20129;-62
2022/11/06 10:42:21;;;;;;;4.43;1.85;;;;;;;;;;5001315;28;20045;-63
2022/11/06 10:44:57;;;;;;;4.25;2.17;;;;;;;;;;5001993;28;20464;-64
2022/11/06 10:47:30;;;;;;;4.30;1.58;;;;;;;;;;4999917;28;20184;-61
2022/11/06 10:49:59;;;;;;;7.10;1.80;;;;;;;;;;5001955;28;20064;-60
2022/11/06 10:52:46;;;;;;;4.05;1.60;;;;;;;;;;5001669;28;20049;-62
2022/11/06 10:55:47;;;;;;;3.65;1.40;;;;;;;;;;5002052;28;20038;-59
2022/11/06 10:58:15;;;;;;;5.47;1.50;;;;;;;;;;4992286;28;20057;-59
2022/11/06 11:00:41;;;;;;;3.60;1.48;;;;;;;;;;5004965;28;20041;-60
2022/11/06 11:03:39;;;;;;;4.50;1.50;;;;;;;;;;5005149;28;20411;-63
2022/11/06 11:06:05;;;;;;;6.93;2.17;;;;;;;;;;5001597;28;20107;-63
2022/11/06 11:08:35;;;;;;;12.75;2.53;;;;;;;;;;5005679;28;20042;-64
2022/11/06 11:11:17;;;;;;;7.75;1.30;;;;;;;;;;5000687;28;20056;-64
2022/11/06 11:14:03;;;;;;;6.65;1.35;;;;;;;;;;4999228;28;20038;-67
2022/11/06 11:16:38;;;;;;;6.38;1.50;;;;;;;;;;5009420;28;20057;-66
2022/11/06 11:19:23;;;;;;;5.45;1.45;;;;;;;;;;5010663;28;20049;-72
2022/11/06 11:21:54;;;;;;;8.88;1.70;;;;;;;;;;4999737;28;20046;-65
2022/11/06 11:24:20;;;;;;;3.53;1.20;;;;;;;;;;5002155;28;20046;-67
2022/11/06 11:26:49;;;;;;;3.30;1.40;;;;;;;;;;5015078;28;20041;-71
2022/11/06 11:29:22;;;;;;;6.75;1.70;;;;;;;;;;5005558;28;20073;-67
2022/11/06 11:32:04;;;;;;;3.15;1.48;;;;;;;;;;5007406;28;20053;-67
2022/11/06 11:34:34;;;;;;;3.55;1.50;;;;;;;;;;5011304;28;20046;-64
2022/11/06 11:37:03;;;;;;;4.28;1.20;;;;;;;;;;5007605;28;20061;-66
2022/11/06 11:39:44;;;;;;;6.45;1.30;;;;;;;;;;5005844;28;20072;-67
2022/11/06 11:42:25;;;;;;;16.45;1.50;;;;;;;;;;5005625;28;20511;-67
2022/11/06 11:45:09;;;;;;;7.18;1.30;;;;;;;;;;5008137;28;20046;-67
2022/11/06 11:47:41;;;;;;;5.78;1.48;;;;;;;;;;5007810;28;20049;-69
2022/11/06 11:50:25;;;;;;;5.30;1.40;;;;;;;;;;5006165;28;20249;-68
2022/11/06 11:52:53;;;;;;;;;;;;;;;;;;5009909;28;20046;-65
2022/11/06 11:55:24;;;;;;;5.72;1.60;;;;;;;;;;5009551;28;19929;-65
2022/11/06 11:57:53;;;;;;;4.20;1.90;;;;;;;;;;5015935;28;20080;-69
2022/11/06 12:00:21;;;;;;;9.30;2.15;;;;;;;;;;5008590;28;20077;-66
2022/11/06 12:03:13;;;;;;;4.63;1.63;;;;;;;;;;5010390;28;20507;-68
2022/11/06 12:05:39;;;;;;;4.93;1.55;;;;;;;;;;4998342;28;20391;-68
2022/11/06 12:08:13;;;;;;;7.63;1.50;;;;;;;;;;5006568;28;20251;-67
2022/11/06 12:10:41;;;;;;;5.95;1.60;;;;;;;;;;5010581;28;20045;-69
2022/11/06 12:13:21;;;;;;;6.32;1.60;;;;;;;;;;5007662;28;21669;-68
2022/11/06 12:16:01;;;;;;;5.25;1.45;;;;;;;;;;5010016;28;20042;-68
2022/11/06 12:18:39;;;;;;;3.83;1.30;;;;;;;;;;5001087;28;20519;-67
2022/11/06 12:21:07;;;;;;;5.47;1.40;;;;;;;;;;5009182;28;20060;-66
2022/11/06 12:23:50;;;;;;;5.63;1.60;;;;;;;;;;5011031;28;20054;-66
2022/11/06 12:26:50;;;;;;;10.55;1.58;;;;;;;;;;5012341;28;20196;-67
2022/11/06 12:29:22;;;;;;;8.52;1.67;;;;;;;;;;5003500;28;20060;-64
2022/11/06 12:32:05;;;;;;;4.35;1.95;;;;;;;;;;5011470;28;20411;-66
2022/11/06 12:34:44;;;;;;;4.03;2.05;;;;;;;;;;5011701;28;20538;-65
2022/11/06 12:37:16;;;;;;;7.20;1.60;;;;;;;;;;5011351;28;20517;-73
2022/11/06 12:39:48;;;;;;;3.95;1.50;;;;;;;;;;5000924;28;20057;-67
2022/11/06 12:42:16;;;;;;;4.07;1.50;;;;;;;;;;5017001;28;20050;-67
2022/11/06 12:44:45;;;;;;;6.95;1.33;;;;;;;;;;5009499;28;20120;-67
2022/11/06 12:47:45;;;;;;;2.83;1.42;;;;;;;;;;5006976;28;20120;-66
2022/11/06 12:50:22;;;;;;;3.92;1.35;;;;;;;;;;5009996;28;20443;-67
2022/11/06 12:53:21;;;;;;;2.72;1.50;;;;;;;;;;5007859;28;20128;-66
2022/11/06 12:56:01;;;;;;;4.10;1.83;;;;;;;;;;5006791;28;20396;-65
2022/11/06 12:58:35;;;;;;;3.85;1.58;;;;;;;;;;5005174;28;20054;-67
2022/11/06 13:01:07;;;;;;;4.13;1.40;;;;;;;;;;5009938;28;20061;-67
2022/11/06 13:03:50;;;;;;;6.55;1.40;;;;;;;;;;5000782;28;20046;-67
2022/11/06 13:06:28;;;;;;;4.63;1.27;;;;;;;;;;5004361;28;20096;-65
2022/11/06 13:09:22;;;;;;;3.58;1.30;;;;;;;;;;5006434;28;20132;-66
2022/11/06 13:11:58;;;;;;;4.25;1.42;;;;;;;;;;4999122;28;20053;-67
2022/11/06 13:14:54;;;;;;;4.00;1.60;;;;;;;;;;5006032;28;20062;-67
2022/11/06 13:17:24;;;;;;;5.03;1.33;;;;;;;;;;5005647;28;20054;-67
2022/11/06 13:20:11;;;;;;;4.78;1.40;;;;;;;;;;5008891;28;20042;-69
2022/11/06 13:22:53;;;;;;;4.22;1.63;;;;;;;;;;5010535;28;20054;-66
2022/11/06 13:25:19;;;;;;;11.20;2.30;;;;;;;;;;5008633;28;20472;-67
2022/11/06 13:28:09;;;;;;;3.38;2.00;;;;;;;;;;5006925;28;20519;-68
2022/11/06 13:30:37;;;;;;;4.35;1.58;;;;;;;;;;5003361;28;20569;-67
2022/11/06 13:33:13;;;;;;;4.43;1.65;;;;;;;;;;5007822;28;20038;-70
2022/11/06 13:35:42;;;;;;;7.30;1.50;;;;;;;;;;5007626;28;20050;-66
2022/11/06 13:38:15;;;;;;;4.50;1.63;;;;;;;;;;5004953;28;20080;-70
2022/11/06 13:40:47;;;;;;;5.28;1.50;;;;;;;;;;5008969;28;20133;-69
2022/11/06 13:43:28;;;;;;;2.55;1.38;;;;;;;;;;5008486;28;20066;-68
2022/11/06 13:46:12;;;;;;;4.25;2.15;;;;;;;;;;5008968;28;20544;-68
2022/11/06 13:48:43;;;;;;;5.53;2.00;;;;;;;;;;5008090;28;20050;-70
2022/11/06 13:51:31;;;;;;;10.32;2.40;;;;;;;;;;5004278;28;20656;-70
2022/11/06 13:54:00;;;;;;;11.85;2.20;;;;;;;;;;5008217;28;20559;-72
2022/11/06 13:56:45;;;;;;;11.95;2.53;;;;;;;;;;5009383;28;20523;-68
2022/11/06 13:59:27;;;;;;;8.13;2.33;;;;;;;;;;5008505;28;20120;-67
2022/11/06 14:02:20;;;;;;;7.78;2.33;;;;;;;;;;5008835;28;20048;-68
2022/11/06 14:04:58;;;;;;;5.32;1.92;;;;;;;;;;5008004;28;20416;-68
2022/11/06 14:07:29;;;;;;;4.53;2.00;;;;;;;;;;5007814;28;20046;-67
2022/11/06 14:09:56;;;;;;;15.20;2.63;;;;;;;;;;5005488;28;20498;-68
2022/11/06 14:12:22;;;;;;;6.10;2.63;;;;;;;;;;5013010;28;20069;-67
2022/11/06 14:14:50;;;;;;;4.55;2.10;;;;;;;;;;5001890;28;20112;-68
2022/11/06 14:17:16;;;;;;;7.30;2.40;;;;;;;;;;5008056;28;20169;-69
2022/11/06 14:19:48;;;;;;;5.38;1.85;;;;;;;;;;5008625;28;20089;-68
2022/11/06 14:22:25;;;;;;;7.65;2.10;;;;;;;;;;5023855;28;20045;-67
2022/11/06 14:24:52;;;;;;;6.57;2.15;;;;;;;;;;5006622;28;20583;-69
2022/11/06 14:27:21;;;;;;;10.63;2.10;;;;;;;;;;5010820;28;20060;-65
2022/11/06 14:30:24;;;;;;;6.28;2.10;;;;;;;;;;5004088;28;20053;-66
2022/11/06 14:32:51;;;;;;;8.52;2.13;;;;;;;;;;5002783;28;20076;-64
2022/11/06 14:35:31;;;;;;;4.95;2.22;;;;;;;;;;5005580;28;20076;-68
2022/11/06 14:38:15;;;;;;;5.90;2.22;;;;;;;;;;5001024;28;20076;-67
2022/11/06 14:40:42;;;;;;;4.95;2.40;;;;;;;;;;5008416;28;20042;-67
2022/11/06 14:43:24;;;;;;;11.63;2.60;;;;;;;;;;5005185;28;20498;-68
2022/11/06 14:46:03;;;;;;;6.85;2.20;;;;;;;;;;5008719;28;20412;-67
2022/11/06 14:48:33;;;;;;;8.23;2.03;;;;;;;;;;4998809;28;20475;-68
2022/11/06 14:51:03;;;;;;;7.28;2.15;;;;;;;;;;5006994;28;20045;-67
2022/11/06 14:53:47;;;;;;;4.97;2.30;;;;;;;;;;5001146;28;20041;-69
2022/11/06 14:56:25;;;;;;;8.75;2.95;;;;;;;;;;5007505;28;20046;-69
2022/11/06 14:58:57;;;;;;;7.97;2.65;;;;;;;;;;5007642;28;20108;-69
2022/11/06 15:01:29;;;;;;;6.97;2.65;;;;;;;;;;5006402;28;20076;-67
2022/11/06 15:04:02;;;;;;;6.55;2.65;;;;;;;;;;5005072;28;20038;-68
2022/11/06 15:06:31;;;;;;;10.48;2.60;;;;;;;;;;5009099;28;20538;-69
2022/11/06 15:09:02;;;;;;;6.88;2.53;;;;;;;;;;5006493;28;20112;-71
2022/11/06 15:11:28;;;;;;;7.00;2.08;;;;;;;;;;5001434;28;20054;-69
2022/11/06 15:14:14;;;;;;;3.58;1.90;;;;;;;;;;4995200;28;20038;-68
2022/11/06 15:16:54;;;;;;;6.70;1.73;;;;;;;;;;5000645;28;20752;-72
2022/11/06 15:19:34;;;;;;;5.00;1.85;;;;;;;;;;5008594;28;20056;-67
2022/11/06 15:22:13;;;;;;;3.33;1.58;;;;;;;;;;5001607;28;20568;-68
2022/11/06 15:24:44;;;;;;;5.40;1.52;;;;;;;;;;4995980;28;20107;-69